KLAX

Los Angeles International Airport

Los Angeles, California, USA
METAR KLAX 141319Z 00000KT 10SM BKN014 BKN160 21/18 A2991 RMK AO2 BKN014 V SCT T02110178 $
Observed Flight Rules
Aug-14 @ 13:19 UTC (24 minutes ago) Marginal Visual Flight Rules
Visibility Clouds
10 miles
  • Broken at 1,400' AGL
  • Broken at 16,000' AGL
Temperatures Readings
Current 21°C / 70°F
Dewpoint 18°C / 64°F
Humidity 83%
Altimeter 29.91" Hg
Pressure 1013 hPa
Elevation 46
METAR KLAX 141319Z 00000KT 10SM BKN014 BKN160 21/18 A2991 RMK AO2 BKN014 V SCT T02110178 $
Observed Flight Rules
Aug-14 @ 13:19 UTC
(24 minutes ago)
MVFR
Clouds
  • Broken at 1,400' AGL
  • Broken at 16,000' AGL
Temperature Dewpoint
21°C / 70°F 18°C / 64°F
Humidity Altimeter Pressure
83% 29.91" Hg 1013 hPa